Flight Track Log - Related Links

Times and Time Zones

All times are in EDT time to prevent confusion due to time zone crossing. See the SWA2852 flight status page for this flight to view local times or setup timezone preferences in your user account.

Time Position Orientation Groundspeed Altitude Reporting Facility
EDT Latitude Longitude Course Direction KTS MPH feet Rate Location/Type
Sun 12:47:06 PM 28.4167 -81.3000 139° Southeast 157 181 500  Level Orlando TRACON
Sun 12:47:30 PM 28.4000 -81.2833 139° Southeast 155 178 1,400 2,133 Climbing Orlando TRACON
Sun 12:48:36 PM 28.3500 -81.2500 150° Southeast 213 245 3,700 2,381 Climbing Orlando TRACON
Sun 12:49:36 PM 28.3833 -81.2000 53° Northeast 232 267 6,400 2,480 Climbing Orlando TRACON
Sun 12:51:52 PM 28.5547 -81.2431 348° North 285 328 11,800 2,571 Climbing Jacksonville Center
Sun 12:52:52 PM 28.6531 -81.2719 346° North 322 371 14,800 3,000 Climbing Jacksonville Center
Sun 12:53:52 PM 28.7600 -81.3011 347° North 367 422 17,800 3,050 Climbing Jacksonville Center
Sun 12:54:52 PM 28.8708 -81.3300 347° North 384 442 20,900 2,650 Climbing Jacksonville Center
Sun 12:55:52 PM 28.9839 -81.3592 347° North 403 464 23,100 2,050 Climbing Jacksonville Center
Sun 12:56:52 PM 29.0969 -81.3908 346° North 414 476 25,000 1,250 Climbing Jacksonville Center
Sun 12:57:52 PM 29.2119 -81.4008 356° North 414 476 25,600 500 Climbing Jacksonville Center
Sun 12:58:52 PM 29.3350 -81.4014 360° North 419 482 26,000 200 Climbing Jacksonville Center
Sun 12:59:52 PM 29.4539 -81.3994 North 424 488 26,000 800 Level Jacksonville Center
Sun 01:00:52 PM 29.5708 -81.4025 359° North 424 488 27,600 1,700 Climbing Jacksonville Center
Sun 01:01:52 PM 29.6900 -81.4056 359° North 424 488 29,400 1,650 Climbing Jacksonville Center
Sun 01:02:52 PM 29.8153 -81.4083 359° North 430 495 30,900 1,650 Climbing Jacksonville Center
Sun 01:03:52 PM 29.9406 -81.4114 359° North 441 507 32,700 1,950 Climbing Jacksonville Center
Sun 01:04:52 PM 30.0617 -81.4119 360° North 441 507 34,800 1,450 Climbing Jacksonville Center
Sun 01:05:52 PM 30.1722 -81.4150 359° North 441 507 35,600 1,500 Climbing Jacksonville Center
Sun 01:06:52 PM 30.2872 -81.4131 North 433 498 37,800 1,700 Climbing Jacksonville Center
Sun 01:07:52 PM 30.3978 -81.4161 359° North 408 470 39,000 600 Climbing Jacksonville Center
Sun 01:08:52 PM 30.5064 -81.4219 357° North 396 456 39,000  Level Jacksonville Center
Sun 01:09:52 PM 30.6150 -81.4250 359° North 386 444 39,000  Level Jacksonville Center
Sun 01:10:52 PM 30.7258 -81.4256 360° North 379 436 39,000  Level Jacksonville Center
Sun 01:11:52 PM 30.8447 -81.4286 359° North 384 442 39,000  Level Jacksonville Center
Sun 01:12:52 PM 30.9431 -81.4319 358° North 384 442 39,000  Level Jacksonville Center
Sun 01:13:52 PM 31.0514 -81.4303 North 384 442 39,000  Level Jacksonville Center
Sun 01:14:52 PM 31.1600 -81.4164 North 384 442 39,000  Level Jacksonville Center
Sun 01:15:52 PM 31.2703 -81.4003 North 384 442 39,000  Level Jacksonville Center
Sun 01:16:52 PM 31.3789 -81.3839 North 389 448 39,000  Level Jacksonville Center
Sun 01:17:52 PM 31.4997 -81.3672 North 389 448 39,000  Level Jacksonville Center
Sun 01:18:52 PM 31.6081 -81.3558 North 389 448 39,000  Level Jacksonville Center
Sun 01:19:52 PM 31.7186 -81.3417 North 389 448 39,000  Level Jacksonville Center
Sun 01:20:52 PM 31.8292 -81.3253 North 389 448 39,000  Level Jacksonville Center
Sun 01:21:52 PM 31.9292 -81.3161 North 395 455 39,000  Level Jacksonville Center
Sun 01:22:52 PM 32.0394 -81.2969 North 395 455 39,000  Level Jacksonville Center
Sun 01:23:52 PM 32.1522 -81.2878 North 395 455 39,000  Level Jacksonville Center
Sun 01:24:52 PM 32.2625 -81.2686 North 395 455 39,000  Level Jacksonville Center
Sun 01:25:52 PM 32.3731 -81.2567 North 395 455 39,000  Level Jacksonville Center
Sun 01:26:52 PM 32.4919 -81.2425 North 401 461 39,000  Level Jacksonville Center
Sun 01:27:52 PM 32.5939 -81.2281 North 401 461 39,000  Level Jacksonville Center
Sun 01:28:52 PM 32.7044 -81.2114 North 406 467 39,000  Level Jacksonville Center
Sun 01:29:52 PM 32.8169 -81.1969 North 406 467 39,000  Level Jacksonville Center
Sun 01:30:52 PM 32.9275 -81.1825 North 406 467 39,000  Level Jacksonville Center
Sun 01:31:52 PM 33.0419 -81.1678 North 406 467 39,000  Level Jacksonville Center
Sun 01:32:52 PM 33.1608 -81.1506 North 406 467 39,000  Level Jacksonville Center
Sun 01:33:52 PM 33.2733 -81.1361 North 401 461 39,000  Level Jacksonville Center
Sun 01:34:52 PM 33.3858 -81.1189 North 406 467 39,000  Level Jacksonville Center
Sun 01:35:52 PM 33.5003 -81.1042 North 406 467 39,000  Level Jacksonville Center
Sun 01:36:52 PM 33.6106 -81.0894 North 406 467 39,000  Level Jacksonville Center
Sun 01:37:52 PM 33.7253 -81.0747 North 406 467 39,000  Level Jacksonville Center
Sun 01:38:52 PM 33.8294 -81.0575 North 406 467 39,000  Level Jacksonville Center
Sun 01:39:52 PM 33.9542 -81.0425 North 411 473 39,000 -250 Level Jacksonville Center
Sun 01:40:52 PM 34.0689 -81.0325 North 411 473 38,500 -600 Descending Jacksonville Center
Sun 01:41:52 PM 34.1878 -81.0225 North 411 473 37,800 -750 Descending Jacksonville Center
Sun 01:42:52 PM 34.3003 -81.0125 North 411 473 37,000 -281 Descending Jacksonville Center
Sun 01:44:43 PM 34.5222 -80.9881 North 434 499 37,000  Level Atlanta Center
Sun 01:45:43 PM 34.6406 -80.9636 10° North 442 509 37,000  Level Atlanta Center
Sun 01:46:43 PM 34.7586 -80.9214 16° North 436 502 37,000  Level Atlanta Center
Sun 01:47:43 PM 34.8786 -80.8789 16° North 436 502 37,000  Level Atlanta Center
Sun 01:48:43 PM 34.9942 -80.8392 16° North 436 502 37,000  Level Atlanta Center
Sun 01:49:43 PM 35.1019 -80.8019 16° North 429 494 37,000  Level Atlanta Center
Sun 01:50:43 PM 35.2217 -80.7567 17° North 438 504 37,000  Level Atlanta Center
Sun 01:51:43 PM 35.3417 -80.7161 15° North 438 504 37,000  Level Atlanta Center
Sun 01:52:43 PM 35.4594 -80.6731 17° North 438 504 37,000  Level Atlanta Center
Sun 01:53:43 PM 35.5814 -80.6325 15° North 438 504 37,000  Level Atlanta Center
Sun 01:54:43 PM 35.7011 -80.5889 16° North 443 510 37,000  Level Atlanta Center
Sun 01:55:43 PM 35.8208 -80.5456 16° North 448 516 37,000  Level Atlanta Center
Sun 01:56:43 PM 35.9428 -80.5044 15° North 449 517 37,000  Level Atlanta Center
Sun 01:57:43 PM 36.0603 -80.4583 18° North 449 517 37,000  Level Atlanta Center
Sun 01:59:48 PM 36.3300 -80.3619 16° North 459 528 37,000  Level Washington Center
Sun 02:00:50 PM 36.4506 -80.3253 14° North 449 517 37,000  Level Washington Center
Sun 02:01:48 PM 36.5628 -80.2803 18° North 449 517 37,000  Level Washington Center
Sun 02:02:48 PM 36.6856 -80.2386 15° North 449 517 37,000  Level Washington Center
Sun 02:03:49 PM 36.8061 -80.1939 17° North 454 522 37,000  Level Washington Center
Sun 02:04:49 PM 36.9331 -80.1494 16° North 454 522 37,000  Level Washington Center
Sun 02:05:50 PM 37.0683 -80.1003 16° North 454 522 37,000  Level Washington Center
Sun 02:06:48 PM 37.1911 -80.0581 15° North 459 528 37,000  Level Washington Center
Sun 02:07:49 PM 37.3181 -80.0106 17° North 459 528 37,000  Level Washington Center
Sun 02:08:50 PM 37.4428 -79.9656 16° North 459 528 37,000  Level Washington Center
Sun 02:09:50 PM 37.5653 -79.9228 15° North 459 528 37,000  Level Washington Center
Sun 02:10:50 PM 37.6878 -79.8772 16° North 459 528 37,000  Level Washington Center
Sun 02:11:48 PM 37.8000 -79.8336 17° North 465 535 37,000  Level Washington Center
Sun 02:12:49 PM 37.9225 -79.7881 16° North 460 529 37,000  Level Washington Center
Sun 02:13:49 PM 38.0453 -79.7419 16° North 460 529 37,000  Level Washington Center
Sun 02:14:50 PM 38.1697 -79.6961 16° North 460 529 37,000  Level Washington Center
Sun 02:15:50 PM 38.2922 -79.6500 16° North 460 529 37,000  Level Washington Center
Sun 02:16:49 PM 38.4275 -79.5964 17° North 460 529 37,000  Level Washington Center
Sun 02:17:50 PM 38.5564 -79.5503 16° North 460 529 37,000  Level Washington Center
Sun 02:18:50 PM 38.6808 -79.5011 17° North 460 529 37,000  Level Washington Center
Sun 02:19:48 PM 38.7931 -79.4539 18° North 465 535 37,000  Level Washington Center
Sun 02:20:49 PM 38.9217 -79.4044 17° North 470 541 37,000  Level Washington Center
Sun 02:24:34 PM 39.4106 -79.2128 17° North 478 550 37,000  Level Cleveland Center
Sun 02:25:34 PM 39.5350 -79.1647 17° North 478 550 37,000  Level Cleveland Center
Sun 02:26:34 PM 39.6617 -79.1161 16° North 478 550 37,000  Level Cleveland Center
Sun 02:27:34 PM 39.7881 -79.0675 16° North 478 550 37,000  Level Cleveland Center
Sun 02:28:34 PM 39.9125 -79.0158 18° North 473 544 37,000  Level Cleveland Center
Sun 02:29:34 PM 40.0411 -78.9642 17° North 473 544 37,000  Level Cleveland Center
Sun 02:30:34 PM 40.1633 -78.9150 17° North 467 537 37,000 -400 Level Cleveland Center
Sun 02:31:34 PM 40.2897 -78.8628 17° North 467 537 36,200 -850 Descending Cleveland Center
Sun 02:32:34 PM 40.4161 -78.8133 17° North 467 537 35,300 -600 Descending Cleveland Center
Sun 02:33:34 PM 40.5447 -78.7606 17° North 467 537 35,000 -150 Descending Cleveland Center
Sun 02:34:34 PM 40.6669 -78.7133 16° North 472 543 35,000  Level Cleveland Center
Sun 02:35:34 PM 40.7911 -78.6606 18° North 466 536 35,000 -100 Level Cleveland Center
Sun 02:36:34 PM 40.9050 -78.6161 16° North 466 536 34,800 -600 Descending Cleveland Center
Sun 02:37:34 PM 41.0292 -78.5656 17° North 466 536 33,800 -950 Descending Cleveland Center
Sun 02:38:34 PM 41.1553 -78.5119 18° North 471 542 32,900 -950 Descending Cleveland Center
Sun 02:39:34 PM 41.2794 -78.4583 18° North 471 542 31,900 -1,100 Descending Cleveland Center
Sun 02:40:34 PM 41.4119 -78.4042 17° North 471 542 30,700 -1,100 Descending Cleveland Center
Sun 02:41:34 PM 41.5278 -78.3558 17° North 452 520 29,700 -1,000 Descending Cleveland Center
Sun 02:42:34 PM 41.6475 -78.3044 18° North 447 514 28,700 -1,350 Descending Cleveland Center
Sun 02:43:34 PM 41.7592 -78.2561 18° North 431 496 27,000 -1,350 Descending Cleveland Center
Sun 02:44:34 PM 41.8689 -78.2131 16° North 419 482 26,000 -1,250 Descending Cleveland Center
Sun 02:45:34 PM 41.9764 -78.1672 18° North 407 468 24,500 -1,950 Descending Cleveland Center
Sun 02:46:34 PM 42.0878 -78.1208 17° North 407 468 22,100 -2,300 Descending Cleveland Center
Sun 02:47:34 PM 42.1953 -78.0747 18° North 401 461 19,900 -2,150 Descending Cleveland Center
Sun 02:48:34 PM 42.3028 -78.0283 18° North 401 461 17,800 -2,170 Descending Cleveland Center
Sun 02:49:08 PM 42.3606 -78.0008 19° North 394 453 16,500 -2,200 Descending Cleveland Center
Sun 02:49:34 PM 42.4058 -77.9819 17° North 396 456 15,600 -2,060 Descending Cleveland Center
Sun 02:50:15 PM 42.4700 -77.9569 16° North 380 437 14,200 -2,200 Descending Cleveland Center
Sun 02:50:34 PM 42.5050 -77.9414 18° North 391 450 13,400 -2,073 Descending Cleveland Center
Sun 02:51:10 PM 42.5650 -77.9161 17° North 368 423 12,300 -1,900 Descending Cleveland Center
Sun 02:51:34 PM 42.6044 -77.9117 North 379 436 11,500 -1,778 Descending Cleveland Center
Sun 02:52:04 PM 42.6567 -77.9153 357° North 354 407 10,700 -1,100 Descending Cleveland Center
Sun 02:52:34 PM 42.6919 -77.9108 North 362 417 10,400 -885 Descending Cleveland Center
Sun 02:53:05 PM 42.7442 -77.9172 355° North 320 368 9,800 -1,300 Descending Cleveland Center
Sun 02:53:34 PM 42.7881 -77.9208 357° North 333 383 9,100 -1,400 Descending Cleveland Center
Sun 02:54:05 PM 42.8297 -77.9247 356° North 302 348 8,400 -1,300 Descending Cleveland Center
Sun 02:54:34 PM 42.8756 -77.9228 North 313 360 7,800 -1,418 Descending Cleveland Center
Sun 02:55:00 PM 42.9069 -77.9244 358° North 298 343 7,100 -1,400 Descending Cleveland Center
Sun 02:55:34 PM 42.9486 -77.9253 359° North 300 345 6,400 -1,100 Descending Cleveland Center
Sun 02:56:00 PM 42.9883 -77.9267 359° North 292 336 6,000 -500 Descending Cleveland Center
Sun 02:56:34 PM 43.0233 -77.9136 15° North 281 323 5,900  Descending Cleveland Center
Sun 02:57:01 PM 43.0644 -77.8864 26° Northeast 278 320 6,000  Climbing Cleveland Center
Sun 02:57:34 PM 43.0931 -77.8653 28° Northeast 268 308 5,900 -492 Descending Cleveland Center
Sun 02:58:02 PM 43.1303 -77.8436 23° Northeast 264 304 5,500 -800 Descending Cleveland Center
Sun 02:58:34 PM 43.1589 -77.8225 28° Northeast 268 308 5,100 -909 Descending Cleveland Center
Sun 02:59:08 PM 43.2019 -77.7978 23° Northeast 261 300 4,500 -1,011 Descending Cleveland Center
Sun 03:00:09 PM 43.2192 -77.7344 70° East 161 185 3,500 -1,033 Descending Cleveland Center
Sun 03:01:10 PM 43.1928 -77.6786 123° Southeast 148 170 2,400 -945 Descending Cleveland Center
Sun 03:02:16 PM 43.1631 -77.6514 146° Southeast 114 131 1,500 -850 Descending Cleveland Center
Sun 03:03:17 PM 43.1261 -77.6731 203° Southwest 136 157 600 -885 Descending Cleveland Center

Login

Don't have an account? Register now (free) for customized features, flight alerts, and more!